sensor_id;sensor_type;location;lat;lon;timestamp;P1;durP1;ratioP1;P2;durP2;ratioP2
15968;SDS011;8085;53.472;9.794;2023-10-09T00:01:50;5.20;;;0.80;;
15968;SDS011;8085;53.472;9.794;2023-10-09T00:04:17;1.63;;;0.80;;
15968;SDS011;8085;53.472;9.794;2023-10-09T00:06:47;2.35;;;1.05;;
15968;SDS011;8085;53.472;9.794;2023-10-09T00:09:13;3.65;;;0.90;;
15968;SDS011;8085;53.472;9.794;2023-10-09T00:11:50;2.10;;;0.90;;
15968;SDS011;8085;53.472;9.794;2023-10-09T00:14:22;2.13;;;1.05;;
15968;SDS011;8085;53.472;9.794;2023-10-09T00:16:50;5.30;;;1.00;;
15968;SDS011;8085;53.472;9.794;2023-10-09T00:19:23;2.75;;;0.93;;
15968;SDS011;8085;53.472;9.794;2023-10-09T00:21:56;3.67;;;1.40;;
15968;SDS011;8085;53.472;9.794;2023-10-09T00:24:29;7.07;;;1.20;;
15968;SDS011;8085;53.472;9.794;2023-10-09T00:26:58;3.85;;;0.95;;
15968;SDS011;8085;53.472;9.794;2023-10-09T00:29:37;2.20;;;1.20;;
15968;SDS011;8085;53.472;9.794;2023-10-09T00:32:09;4.85;;;1.30;;
15968;SDS011;8085;53.472;9.794;2023-10-09T00:34:47;5.38;;;0.88;;
15968;SDS011;8085;53.472;9.794;2023-10-09T00:37:17;3.28;;;0.82;;
15968;SDS011;8085;53.472;9.794;2023-10-09T00:39:48;3.92;;;1.02;;
15968;SDS011;8085;53.472;9.794;2023-10-09T00:42:21;2.63;;;0.90;;
15968;SDS011;8085;53.472;9.794;2023-10-09T00:44:52;6.47;;;1.30;;
15968;SDS011;8085;53.472;9.794;2023-10-09T00:47:21;3.88;;;1.00;;
15968;SDS011;8085;53.472;9.794;2023-10-09T00:49:52;2.50;;;0.90;;
15968;SDS011;8085;53.472;9.794;2023-10-09T00:52:26;2.67;;;1.10;;
15968;SDS011;8085;53.472;9.794;2023-10-09T00:54:58;2.70;;;0.90;;
15968;SDS011;8085;53.472;9.794;2023-10-09T00:57:30;2.53;;;1.00;;
15968;SDS011;8085;53.472;9.794;2023-10-09T01:00:03;2.78;;;0.90;;
15968;SDS011;8085;53.472;9.794;2023-10-09T01:02:38;5.32;;;1.17;;
15968;SDS011;8085;53.472;9.794;2023-10-09T01:05:08;3.70;;;1.23;;
15968;SDS011;8085;53.472;9.794;2023-10-09T01:07:45;5.43;;;1.15;;
15968;SDS011;8085;53.472;9.794;2023-10-09T01:10:14;3.97;;;1.17;;
15968;SDS011;8085;53.472;9.794;2023-10-09T01:12:43;3.92;;;1.10;;
15968;SDS011;8085;53.472;9.794;2023-10-09T01:15:12;5.43;;;1.60;;
15968;SDS011;8085;53.472;9.794;2023-10-09T01:18:01;1.65;;;0.95;;
15968;SDS011;8085;53.472;9.794;2023-10-09T01:20:32;1.40;;;1.00;;
15968;SDS011;8085;53.472;9.794;2023-10-09T01:23:09;2.13;;;1.17;;
15968;SDS011;8085;53.472;9.794;2023-10-09T01:25:36;4.32;;;1.38;;
15968;SDS011;8085;53.472;9.794;2023-10-09T01:28:09;1.55;;;0.98;;
15968;SDS011;8085;53.472;9.794;2023-10-09T01:30:41;3.90;;;1.33;;
15968;SDS011;8085;53.472;9.794;2023-10-09T01:33:12;5.47;;;1.55;;
15968;SDS011;8085;53.472;9.794;2023-10-09T01:35:52;2.67;;;1.30;;
15968;SDS011;8085;53.472;9.794;2023-10-09T01:38:25;5.05;;;1.30;;
15968;SDS011;8085;53.472;9.794;2023-10-09T01:41:07;3.70;;;1.30;;
15968;SDS011;8085;53.472;9.794;2023-10-09T01:43:41;2.83;;;1.30;;
15968;SDS011;8085;53.472;9.794;2023-10-09T01:46:09;2.90;;;1.42;;
15968;SDS011;8085;53.472;9.794;2023-10-09T01:48:37;2.50;;;1.30;;
15968;SDS011;8085;53.472;9.794;2023-10-09T01:51:13;3.42;;;1.40;;
15968;SDS011;8085;53.472;9.794;2023-10-09T01:53:44;1.88;;;1.25;;
15968;SDS011;8085;53.472;9.794;2023-10-09T01:56:12;3.83;;;1.10;;
15968;SDS011;8085;53.472;9.794;2023-10-09T01:58:44;2.42;;;1.23;;
15968;SDS011;8085;53.472;9.794;2023-10-09T02:01:11;3.63;;;1.50;;
15968;SDS011;8085;53.472;9.794;2023-10-09T02:03:39;3.65;;;1.52;;
15968;SDS011;8085;53.472;9.794;2023-10-09T02:06:07;5.53;;;1.63;;
15968;SDS011;8085;53.472;9.794;2023-10-09T02:08:52;7.65;;;1.70;;
15968;SDS011;8085;53.472;9.794;2023-10-09T02:11:21;5.15;;;1.52;;
15968;SDS011;8085;53.472;9.794;2023-10-09T02:14:02;2.63;;;1.38;;
15968;SDS011;8085;53.472;9.794;2023-10-09T02:16:41;2.33;;;1.38;;
15968;SDS011;8085;53.472;9.794;2023-10-09T02:19:08;2.15;;;1.13;;
15968;SDS011;8085;53.472;9.794;2023-10-09T02:21:54;6.53;;;1.30;;
15968;SDS011;8085;53.472;9.794;2023-10-09T02:24:24;2.83;;;1.60;;
15968;SDS011;8085;53.472;9.794;2023-10-09T02:27:07;4.90;;;1.48;;
15968;SDS011;8085;53.472;9.794;2023-10-09T02:29:36;1.83;;;1.42;;
15968;SDS011;8085;53.472;9.794;2023-10-09T02:32:07;4.78;;;1.60;;
15968;SDS011;8085;53.472;9.794;2023-10-09T02:34:50;3.88;;;1.63;;
15968;SDS011;8085;53.472;9.794;2023-10-09T02:37:19;4.35;;;1.48;;
15968;SDS011;8085;53.472;9.794;2023-10-09T02:39:50;3.35;;;1.67;;
15968;SDS011;8085;53.472;9.794;2023-10-09T02:42:17;6.55;;;1.80;;
15968;SDS011;8085;53.472;9.794;2023-10-09T02:44:51;3.38;;;1.65;;
15968;SDS011;8085;53.472;9.794;2023-10-09T02:47:18;3.47;;;2.03;;
15968;SDS011;8085;53.472;9.794;2023-10-09T02:49:50;2.90;;;1.67;;
15968;SDS011;8085;53.472;9.794;2023-10-09T02:52:17;3.97;;;1.65;;
15968;SDS011;8085;53.472;9.794;2023-10-09T02:54:51;2.97;;;1.80;;
15968;SDS011;8085;53.472;9.794;2023-10-09T02:57:25;3.97;;;1.92;;
15968;SDS011;8085;53.472;9.794;2023-10-09T03:00:02;6.68;;;2.22;;
15968;SDS011;8085;53.472;9.794;2023-10-09T03:02:33;3.13;;;2.05;;
15968;SDS011;8085;53.472;9.794;2023-10-09T03:05:05;4.07;;;2.40;;
15968;SDS011;8085;53.472;9.794;2023-10-09T03:07:37;5.28;;;2.50;;
15968;SDS011;8085;53.472;9.794;2023-10-09T03:10:06;5.90;;;2.63;;
15968;SDS011;8085;53.472;9.794;2023-10-09T03:12:35;6.30;;;2.60;;
15968;SDS011;8085;53.472;9.794;2023-10-09T03:15:02;4.10;;;2.20;;
15968;SDS011;8085;53.472;9.794;2023-10-09T03:17:33;4.35;;;2.60;;
15968;SDS011;8085;53.472;9.794;2023-10-09T03:20:02;5.60;;;2.33;;
15968;SDS011;8085;53.472;9.794;2023-10-09T03:22:37;5.63;;;2.63;;
15968;SDS011;8085;53.472;9.794;2023-10-09T03:25:06;4.35;;;2.72;;
15968;SDS011;8085;53.472;9.794;2023-10-09T03:27:37;5.15;;;2.65;;
15968;SDS011;8085;53.472;9.794;2023-10-09T03:30:07;7.20;;;2.78;;
15968;SDS011;8085;53.472;9.794;2023-10-09T03:32:42;5.30;;;2.58;;
15968;SDS011;8085;53.472;9.794;2023-10-09T03:35:09;5.72;;;2.80;;
15968;SDS011;8085;53.472;9.794;2023-10-09T03:37:39;4.70;;;2.60;;
15968;SDS011;8085;53.472;9.794;2023-10-09T03:40:09;8.73;;;2.90;;
15968;SDS011;8085;53.472;9.794;2023-10-09T03:42:43;2.85;;;2.20;;
15968;SDS011;8085;53.472;9.794;2023-10-09T03:45:10;4.55;;;2.55;;
15968;SDS011;8085;53.472;9.794;2023-10-09T03:47:49;4.95;;;2.97;;
15968;SDS011;8085;53.472;9.794;2023-10-09T03:50:34;6.47;;;2.63;;
15968;SDS011;8085;53.472;9.794;2023-10-09T03:53:03;4.20;;;2.72;;
15968;SDS011;8085;53.472;9.794;2023-10-09T03:55:34;5.00;;;2.75;;
15968;SDS011;8085;53.472;9.794;2023-10-09T03:58:03;5.47;;;2.60;;
15968;SDS011;8085;53.472;9.794;2023-10-09T04:00:31;3.78;;;2.25;;
15968;SDS011;8085;53.472;9.794;2023-10-09T04:03:09;4.35;;;2.40;;
15968;SDS011;8085;53.472;9.794;2023-10-09T04:05:39;4.57;;;2.33;;
15968;SDS011;8085;53.472;9.794;2023-10-09T04:08:07;5.10;;;2.42;;
15968;SDS011;8085;53.472;9.794;2023-10-09T04:13:16;3.95;;;2.03;;
15968;SDS011;8085;53.472;9.794;2023-10-09T04:15:48;3.10;;;1.83;;
15968;SDS011;8085;53.472;9.794;2023-10-09T04:18:17;4.25;;;2.15;;
15968;SDS011;8085;53.472;9.794;2023-10-09T04:20:45;3.58;;;1.83;;
15968;SDS011;8085;53.472;9.794;2023-10-09T04:23:30;3.63;;;1.83;;
15968;SDS011;8085;53.472;9.794;2023-10-09T04:26:03;4.60;;;1.73;;
15968;SDS011;8085;53.472;9.794;2023-10-09T04:28:39;4.70;;;1.45;;
15968;SDS011;8085;53.472;9.794;2023-10-09T04:31:07;4.80;;;1.85;;
15968;SDS011;8085;53.472;9.794;2023-10-09T04:33:34;4.15;;;1.63;;
15968;SDS011;8085;53.472;9.794;2023-10-09T04:36:19;3.50;;;1.92;;
15968;SDS011;8085;53.472;9.794;2023-10-09T04:38:53;3.55;;;1.55;;
15968;SDS011;8085;53.472;9.794;2023-10-09T04:41:42;4.35;;;1.70;;
15968;SDS011;8085;53.472;9.794;2023-10-09T04:44:17;4.53;;;1.85;;
15968;SDS011;8085;53.472;9.794;2023-10-09T04:46:48;3.58;;;1.90;;
15968;SDS011;8085;53.472;9.794;2023-10-09T04:49:29;4.80;;;1.85;;
15968;SDS011;8085;53.472;9.794;2023-10-09T04:52:10;5.28;;;2.13;;
15968;SDS011;8085;53.472;9.794;2023-10-09T04:54:45;3.00;;;1.63;;
15968;SDS011;8085;53.472;9.794;2023-10-09T04:57:28;3.03;;;1.63;;
15968;SDS011;8085;53.472;9.794;2023-10-09T05:00:03;2.08;;;1.52;;
15968;SDS011;8085;53.472;9.794;2023-10-09T05:02:47;4.32;;;1.73;;
15968;SDS011;8085;53.472;9.794;2023-10-09T05:05:19;3.75;;;1.70;;
15968;SDS011;8085;53.472;9.794;2023-10-09T05:08:00;2.92;;;1.45;;
15968;SDS011;8085;53.472;9.794;2023-10-09T05:10:44;2.63;;;1.40;;
15968;SDS011;8085;53.472;9.794;2023-10-09T05:13:31;3.38;;;1.20;;
15968;SDS011;8085;53.472;9.794;2023-10-09T05:16:09;3.60;;;1.60;;
15968;SDS011;8085;53.472;9.794;2023-10-09T05:18:43;3.83;;;1.40;;
15968;SDS011;8085;53.472;9.794;2023-10-09T05:21:21;2.47;;;1.33;;
15968;SDS011;8085;53.472;9.794;2023-10-09T05:24:10;3.88;;;1.50;;
15968;SDS011;8085;53.472;9.794;2023-10-09T05:26:49;3.00;;;1.33;;
15968;SDS011;8085;53.472;9.794;2023-10-09T05:29:40;3.63;;;1.33;;
15968;SDS011;8085;53.472;9.794;2023-10-09T05:32:24;5.13;;;1.60;;
15968;SDS011;8085;53.472;9.794;2023-10-09T05:34:55;6.90;;;1.67;;
15968;SDS011;8085;53.472;9.794;2023-10-09T05:37:33;2.67;;;1.25;;
15968;SDS011;8085;53.472;9.794;2023-10-09T05:40:10;4.57;;;2.00;;
15968;SDS011;8085;53.472;9.794;2023-10-09T05:42:48;3.35;;;1.33;;
15968;SDS011;8085;53.472;9.794;2023-10-09T05:45:26;3.85;;;1.65;;
15968;SDS011;8085;53.472;9.794;2023-10-09T05:48:29;3.95;;;1.90;;
15968;SDS011;8085;53.472;9.794;2023-10-09T05:51:14;3.60;;;1.73;;
15968;SDS011;8085;53.472;9.794;2023-10-09T05:53:55;3.53;;;1.80;;
15968;SDS011;8085;53.472;9.794;2023-10-09T05:56:38;6.03;;;1.70;;
15968;SDS011;8085;53.472;9.794;2023-10-09T05:59:24;3.53;;;1.55;;
15968;SDS011;8085;53.472;9.794;2023-10-09T06:02:10;5.20;;;1.80;;
15968;SDS011;8085;53.472;9.794;2023-10-09T06:05:04;4.47;;;2.30;;
15968;SDS011;8085;53.472;9.794;2023-10-09T06:07:51;4.82;;;1.90;;
15968;SDS011;8085;53.472;9.794;2023-10-09T06:10:32;4.72;;;2.17;;
15968;SDS011;8085;53.472;9.794;2023-10-09T06:13:07;2.70;;;2.10;;
15968;SDS011;8085;53.472;9.794;2023-10-09T06:15:55;4.47;;;1.92;;
15968;SDS011;8085;53.472;9.794;2023-10-09T06:18:36;3.45;;;2.13;;
15968;SDS011;8085;53.472;9.794;2023-10-09T06:21:06;2.30;;;1.70;;
15968;SDS011;8085;53.472;9.794;2023-10-09T06:23:55;3.08;;;1.75;;
15968;SDS011;8085;53.472;9.794;2023-10-09T06:26:40;3.65;;;2.10;;
15968;SDS011;8085;53.472;9.794;2023-10-09T06:29:16;4.10;;;2.25;;
15968;SDS011;8085;53.472;9.794;2023-10-09T06:31:59;3.47;;;2.30;;
15968;SDS011;8085;53.472;9.794;2023-10-09T06:34:43;4.07;;;2.10;;
15968;SDS011;8085;53.472;9.794;2023-10-09T06:37:12;4.30;;;2.13;;
15968;SDS011;8085;53.472;9.794;2023-10-09T06:39:44;5.13;;;2.22;;
15968;SDS011;8085;53.472;9.794;2023-10-09T06:42:36;5.72;;;2.42;;
15968;SDS011;8085;53.472;9.794;2023-10-09T06:45:16;4.05;;;2.33;;
15968;SDS011;8085;53.472;9.794;2023-10-09T06:47:46;3.78;;;2.20;;
15968;SDS011;8085;53.472;9.794;2023-10-09T06:53:12;3.45;;;2.25;;
15968;SDS011;8085;53.472;9.794;2023-10-09T06:55:53;3.80;;;2.15;;
15968;SDS011;8085;53.472;9.794;2023-10-09T06:58:30;3.38;;;2.38;;
15968;SDS011;8085;53.472;9.794;2023-10-09T07:01:07;3.25;;;2.00;;
15968;SDS011;8085;53.472;9.794;2023-10-09T07:03:44;2.88;;;2.20;;
15968;SDS011;8085;53.472;9.794;2023-10-09T07:06:26;2.80;;;1.70;;
15968;SDS011;8085;53.472;9.794;2023-10-09T07:09:07;4.18;;;1.92;;
15968;SDS011;8085;53.472;9.794;2023-10-09T07:11:45;3.63;;;2.13;;
15968;SDS011;8085;53.472;9.794;2023-10-09T07:14:34;2.22;;;1.55;;
15968;SDS011;8085;53.472;9.794;2023-10-09T07:17:21;3.88;;;1.80;;
15968;SDS011;8085;53.472;9.794;2023-10-09T07:19:53;3.85;;;1.90;;
15968;SDS011;8085;53.472;9.794;2023-10-09T07:22:39;2.72;;;1.75;;
15968;SDS011;8085;53.472;9.794;2023-10-09T07:25:18;2.97;;;2.17;;
15968;SDS011;8085;53.472;9.794;2023-10-09T07:28:08;4.28;;;1.88;;
15968;SDS011;8085;53.472;9.794;2023-10-09T07:30:54;3.95;;;1.90;;
15968;SDS011;8085;53.472;9.794;2023-10-09T07:33:23;3.40;;;1.83;;
15968;SDS011;8085;53.472;9.794;2023-10-09T07:36:00;5.00;;;2.00;;
15968;SDS011;8085;53.472;9.794;2023-10-09T07:38:32;2.63;;;1.73;;
15968;SDS011;8085;53.472;9.794;2023-10-09T07:41:01;3.72;;;1.98;;
15968;SDS011;8085;53.472;9.794;2023-10-09T07:43:43;2.45;;;1.67;;
15968;SDS011;8085;53.472;9.794;2023-10-09T07:46:11;3.40;;;1.65;;
15968;SDS011;8085;53.472;9.794;2023-10-09T07:48:53;1.85;;;1.55;;
15968;SDS011;8085;53.472;9.794;2023-10-09T07:51:21;3.58;;;2.10;;
15968;SDS011;8085;53.472;9.794;2023-10-09T07:53:57;2.65;;;1.98;;
15968;SDS011;8085;53.472;9.794;2023-10-09T07:56:32;1.88;;;1.67;;
15968;SDS011;8085;53.472;9.794;2023-10-09T07:59:03;3.05;;;1.73;;
15968;SDS011;8085;53.472;9.794;2023-10-09T08:01:36;2.78;;;1.70;;
15968;SDS011;8085;53.472;9.794;2023-10-09T08:04:03;1.70;;;1.60;;
15968;SDS011;8085;53.472;9.794;2023-10-09T08:06:36;2.10;;;1.77;;
15968;SDS011;8085;53.472;9.794;2023-10-09T08:09:10;2.55;;;2.08;;
15968;SDS011;8085;53.472;9.794;2023-10-09T08:11:43;3.92;;;2.10;;
15968;SDS011;8085;53.472;9.794;2023-10-09T08:14:39;2.90;;;1.85;;
15968;SDS011;8085;53.472;9.794;2023-10-09T08:17:10;2.25;;;1.60;;
15968;SDS011;8085;53.472;9.794;2023-10-09T08:19:41;3.13;;;1.55;;
15968;SDS011;8085;53.472;9.794;2023-10-09T08:22:29;3.08;;;1.80;;
15968;SDS011;8085;53.472;9.794;2023-10-09T08:25:19;1.98;;;1.60;;
15968;SDS011;8085;53.472;9.794;2023-10-09T08:27:55;1.63;;;1.45;;
15968;SDS011;8085;53.472;9.794;2023-10-09T08:30:24;2.75;;;1.70;;
15968;SDS011;8085;53.472;9.794;2023-10-09T08:32:54;1.90;;;1.40;;
15968;SDS011;8085;53.472;9.794;2023-10-09T08:35:28;2.60;;;1.80;;
15968;SDS011;8085;53.472;9.794;2023-10-09T08:37:59;2.28;;;1.35;;
15968;SDS011;8085;53.472;9.794;2023-10-09T08:40:35;1.92;;;1.33;;
15968;SDS011;8085;53.472;9.794;2023-10-09T08:43:07;2.53;;;1.65;;
15968;SDS011;8085;53.472;9.794;2023-10-09T08:45:36;2.55;;;1.75;;
15968;SDS011;8085;53.472;9.794;2023-10-09T08:48:05;1.88;;;1.73;;
15968;SDS011;8085;53.472;9.794;2023-10-09T08:50:35;2.40;;;1.60;;
15968;SDS011;8085;53.472;9.794;2023-10-09T08:53:02;2.17;;;1.70;;
15968;SDS011;8085;53.472;9.794;2023-10-09T08:55:29;2.55;;;1.40;;
15968;SDS011;8085;53.472;9.794;2023-10-09T08:57:57;1.77;;;1.42;;
15968;SDS011;8085;53.472;9.794;2023-10-09T09:00:25;1.70;;;1.40;;
15968;SDS011;8085;53.472;9.794;2023-10-09T09:02:58;3.40;;;2.13;;
15968;SDS011;8085;53.472;9.794;2023-10-09T09:05:26;3.13;;;2.30;;
15968;SDS011;8085;53.472;9.794;2023-10-09T09:07:54;3.60;;;2.22;;
15968;SDS011;8085;53.472;9.794;2023-10-09T09:10:27;2.55;;;1.88;;
15968;SDS011;8085;53.472;9.794;2023-10-09T09:13:02;2.45;;;1.90;;
15968;SDS011;8085;53.472;9.794;2023-10-09T09:15:30;1.90;;;1.42;;
15968;SDS011;8085;53.472;9.794;2023-10-09T09:18:04;1.95;;;1.70;;
15968;SDS011;8085;53.472;9.794;2023-10-09T09:20:36;1.77;;;1.40;;
15968;SDS011;8085;53.472;9.794;2023-10-09T09:23:05;2.70;;;2.00;;
15968;SDS011;8085;53.472;9.794;2023-10-09T09:25:41;1.92;;;1.70;;
15968;SDS011;8085;53.472;9.794;2023-10-09T09:28:14;3.35;;;1.55;;
15968;SDS011;8085;53.472;9.794;2023-10-09T09:30:46;2.00;;;1.77;;
15968;SDS011;8085;53.472;9.794;2023-10-09T09:33:20;2.55;;;1.30;;
15968;SDS011;8085;53.472;9.794;2023-10-09T09:35:59;1.60;;;1.40;;
15968;SDS011;8085;53.472;9.794;2023-10-09T09:38:30;1.27;;;1.13;;
15968;SDS011;8085;53.472;9.794;2023-10-09T09:43:35;2.45;;;1.13;;
15968;SDS011;8085;53.472;9.794;2023-10-09T09:46:06;2.90;;;1.80;;
15968;SDS011;8085;53.472;9.794;2023-10-09T09:48:36;2.30;;;1.55;;
15968;SDS011;8085;53.472;9.794;2023-10-09T09:51:05;1.70;;;1.40;;
15968;SDS011;8085;53.472;9.794;2023-10-09T09:53:33;3.80;;;2.38;;
15968;SDS011;8085;53.472;9.794;2023-10-09T09:56:01;3.17;;;2.38;;
15968;SDS011;8085;53.472;9.794;2023-10-09T09:58:30;2.70;;;2.13;;
15968;SDS011;8085;53.472;9.794;2023-10-09T10:01:08;2.83;;;2.33;;
15968;SDS011;8085;53.472;9.794;2023-10-09T10:03:42;2.88;;;2.17;;
15968;SDS011;8085;53.472;9.794;2023-10-09T10:06:13;4.28;;;2.42;;
15968;SDS011;8085;53.472;9.794;2023-10-09T10:08:44;3.42;;;2.42;;
15968;SDS011;8085;53.472;9.794;2023-10-09T10:14:10;2.72;;;2.08;;
15968;SDS011;8085;53.472;9.794;2023-10-09T10:17:01;3.05;;;2.15;;
15968;SDS011;8085;53.472;9.794;2023-10-09T10:20:00;4.50;;;2.30;;
15968;SDS011;8085;53.472;9.794;2023-10-09T10:22:50;3.45;;;2.30;;
15968;SDS011;8085;53.472;9.794;2023-10-09T10:25:32;3.22;;;2.10;;
15968;SDS011;8085;53.472;9.794;2023-10-09T10:28:19;2.97;;;1.92;;
15968;SDS011;8085;53.472;9.794;2023-10-09T10:31:03;4.35;;;2.40;;
15968;SDS011;8085;53.472;9.794;2023-10-09T10:36:36;2.97;;;2.38;;
15968;SDS011;8085;53.472;9.794;2023-10-09T10:39:08;4.35;;;2.33;;
15968;SDS011;8085;53.472;9.794;2023-10-09T10:41:37;4.57;;;2.53;;
15968;SDS011;8085;53.472;9.794;2023-10-09T10:44:16;4.50;;;2.35;;
15968;SDS011;8085;53.472;9.794;2023-10-09T10:47:03;4.28;;;2.28;;
15968;SDS011;8085;53.472;9.794;2023-10-09T10:49:44;3.70;;;2.53;;
15968;SDS011;8085;53.472;9.794;2023-10-09T10:52:19;6.93;;;4.03;;
15968;SDS011;8085;53.472;9.794;2023-10-09T10:54:47;9.85;;;4.68;;
15968;SDS011;8085;53.472;9.794;2023-10-09T10:57:35;7.13;;;4.35;;
15968;SDS011;8085;53.472;9.794;2023-10-09T11:00:19;7.80;;;4.45;;
15968;SDS011;8085;53.472;9.794;2023-10-09T11:03:04;7.50;;;4.03;;
15968;SDS011;8085;53.472;9.794;2023-10-09T11:05:44;10.20;;;5.05;;
15968;SDS011;8085;53.472;9.794;2023-10-09T11:08:15;8.52;;;5.03;;
15968;SDS011;8085;53.472;9.794;2023-10-09T11:10:47;7.85;;;5.22;;
15968;SDS011;8085;53.472;9.794;2023-10-09T11:13:23;8.93;;;4.93;;
15968;SDS011;8085;53.472;9.794;2023-10-09T11:16:00;8.77;;;5.07;;
15968;SDS011;8085;53.472;9.794;2023-10-09T11:18:49;7.03;;;4.85;;
15968;SDS011;8085;53.472;9.794;2023-10-09T11:21:17;7.55;;;4.43;;
15968;SDS011;8085;53.472;9.794;2023-10-09T11:23:58;8.52;;;5.07;;
15968;SDS011;8085;53.472;9.794;2023-10-09T11:26:46;7.63;;;4.78;;
15968;SDS011;8085;53.472;9.794;2023-10-09T11:29:19;9.73;;;5.78;;
15968;SDS011;8085;53.472;9.794;2023-10-09T11:32:01;9.75;;;5.25;;
15968;SDS011;8085;53.472;9.794;2023-10-09T11:34:30;8.43;;;5.47;;
15968;SDS011;8085;53.472;9.794;2023-10-09T11:37:01;10.18;;;5.20;;
15968;SDS011;8085;53.472;9.794;2023-10-09T11:39:35;11.10;;;5.80;;
15968;SDS011;8085;53.472;9.794;2023-10-09T11:42:17;9.98;;;5.97;;
15968;SDS011;8085;53.472;9.794;2023-10-09T11:45:01;8.73;;;5.88;;
15968;SDS011;8085;53.472;9.794;2023-10-09T11:47:44;10.77;;;5.63;;
15968;SDS011;8085;53.472;9.794;2023-10-09T11:50:37;10.98;;;5.97;;
15968;SDS011;8085;53.472;9.794;2023-10-09T11:53:10;10.02;;;6.43;;
15968;SDS011;8085;53.472;9.794;2023-10-09T11:55:58;10.68;;;5.18;;
15968;SDS011;8085;53.472;9.794;2023-10-09T11:58:26;7.70;;;4.85;;
15968;SDS011;8085;53.472;9.794;2023-10-09T12:00:52;6.57;;;4.18;;
15968;SDS011;8085;53.472;9.794;2023-10-09T12:03:22;6.25;;;4.03;;
15968;SDS011;8085;53.472;9.794;2023-10-09T12:05:54;6.97;;;3.33;;
15968;SDS011;8085;53.472;9.794;2023-10-09T12:08:23;5.35;;;3.13;;
15968;SDS011;8085;53.472;9.794;2023-10-09T12:10:53;7.97;;;3.80;;
15968;SDS011;8085;53.472;9.794;2023-10-09T12:13:21;7.05;;;3.42;;
15968;SDS011;8085;53.472;9.794;2023-10-09T12:15:48;4.72;;;2.92;;
15968;SDS011;8085;53.472;9.794;2023-10-09T12:18:19;4.32;;;2.83;;
15968;SDS011;8085;53.472;9.794;2023-10-09T12:20:47;5.03;;;3.58;;
15968;SDS011;8085;53.472;9.794;2023-10-09T12:23:17;5.80;;;3.78;;
15968;SDS011;8085;53.472;9.794;2023-10-09T12:25:47;5.93;;;4.30;;
15968;SDS011;8085;53.472;9.794;2023-10-09T12:28:15;7.22;;;4.20;;
15968;SDS011;8085;53.472;9.794;2023-10-09T12:30:45;9.40;;;4.47;;
15968;SDS011;8085;53.472;9.794;2023-10-09T12:33:15;7.18;;;4.90;;
15968;SDS011;8085;53.472;9.794;2023-10-09T12:35:43;6.15;;;4.07;;
15968;SDS011;8085;53.472;9.794;2023-10-09T12:38:12;6.85;;;4.60;;
15968;SDS011;8085;53.472;9.794;2023-10-09T12:40:51;8.50;;;4.13;;
15968;SDS011;8085;53.472;9.794;2023-10-09T12:43:33;6.88;;;4.40;;
15968;SDS011;8085;53.472;9.794;2023-10-09T12:46:04;6.88;;;3.80;;
15968;SDS011;8085;53.472;9.794;2023-10-09T12:48:32;6.70;;;4.00;;
15968;SDS011;8085;53.472;9.794;2023-10-09T12:51:00;6.10;;;4.20;;
15968;SDS011;8085;53.472;9.794;2023-10-09T12:53:31;8.32;;;4.97;;
15968;SDS011;8085;53.472;9.794;2023-10-09T12:56:00;5.70;;;4.28;;
15968;SDS011;8085;53.472;9.794;2023-10-09T12:58:27;9.73;;;4.85;;
15968;SDS011;8085;53.472;9.794;2023-10-09T13:00:54;9.20;;;5.22;;
15968;SDS011;8085;53.472;9.794;2023-10-09T13:03:20;11.48;;;5.30;;
15968;SDS011;8085;53.472;9.794;2023-10-09T13:05:53;9.88;;;5.10;;
15968;SDS011;8085;53.472;9.794;2023-10-09T13:08:22;10.00;;;4.90;;
15968;SDS011;8085;53.472;9.794;2023-10-09T13:10:56;11.25;;;4.28;;
15968;SDS011;8085;53.472;9.794;2023-10-09T13:13:34;5.88;;;3.85;;
15968;SDS011;8085;53.472;9.794;2023-10-09T13:16:11;8.25;;;4.40;;
15968;SDS011;8085;53.472;9.794;2023-10-09T13:18:48;6.80;;;4.20;;
15968;SDS011;8085;53.472;9.794;2023-10-09T13:21:16;8.70;;;4.32;;
15968;SDS011;8085;53.472;9.794;2023-10-09T13:23:44;6.57;;;3.83;;
15968;SDS011;8085;53.472;9.794;2023-10-09T13:26:13;7.15;;;3.78;;
15968;SDS011;8085;53.472;9.794;2023-10-09T13:28:50;5.95;;;3.60;;
15968;SDS011;8085;53.472;9.794;2023-10-09T13:31:19;5.30;;;3.40;;
15968;SDS011;8085;53.472;9.794;2023-10-09T13:33:48;4.97;;;2.72;;
15968;SDS011;8085;53.472;9.794;2023-10-09T13:36:19;3.28;;;2.65;;
15968;SDS011;8085;53.472;9.794;2023-10-09T13:38:53;3.15;;;2.67;;
15968;SDS011;8085;53.472;9.794;2023-10-09T13:41:20;2.95;;;2.30;;
15968;SDS011;8085;53.472;9.794;2023-10-09T13:43:47;3.88;;;2.65;;
15968;SDS011;8085;53.472;9.794;2023-10-09T13:46:18;4.80;;;3.05;;
15968;SDS011;8085;53.472;9.794;2023-10-09T13:48:45;5.72;;;3.35;;
15968;SDS011;8085;53.472;9.794;2023-10-09T13:51:14;4.20;;;2.95;;
15968;SDS011;8085;53.472;9.794;2023-10-09T13:53:44;5.90;;;3.30;;
15968;SDS011;8085;53.472;9.794;2023-10-09T13:56:11;5.95;;;3.20;;
15968;SDS011;8085;53.472;9.794;2023-10-09T13:58:44;4.22;;;3.25;;
15968;SDS011;8085;53.472;9.794;2023-10-09T14:01:11;5.10;;;3.17;;
15968;SDS011;8085;53.472;9.794;2023-10-09T14:03:53;5.50;;;3.45;;
15968;SDS011;8085;53.472;9.794;2023-10-09T14:06:21;6.57;;;3.47;;
15968;SDS011;8085;53.472;9.794;2023-10-09T14:08:55;5.07;;;3.15;;
15968;SDS011;8085;53.472;9.794;2023-10-09T14:11:23;3.65;;;2.83;;
15968;SDS011;8085;53.472;9.794;2023-10-09T14:13:50;3.70;;;2.65;;
15968;SDS011;8085;53.472;9.794;2023-10-09T14:16:17;4.45;;;3.22;;
15968;SDS011;8085;53.472;9.794;2023-10-09T14:18:53;5.13;;;3.42;;
15968;SDS011;8085;53.472;9.794;2023-10-09T14:21:23;4.85;;;3.30;;
15968;SDS011;8085;53.472;9.794;2023-10-09T14:23:51;5.20;;;3.15;;
15968;SDS011;8085;53.472;9.794;2023-10-09T14:26:22;7.55;;;3.40;;
15968;SDS011;8085;53.472;9.794;2023-10-09T14:28:50;6.35;;;3.05;;
15968;SDS011;8085;53.472;9.794;2023-10-09T14:31:18;6.10;;;2.58;;
15968;SDS011;8085;53.472;9.794;2023-10-09T14:33:51;4.45;;;2.65;;
15968;SDS011;8085;53.472;9.794;2023-10-09T14:36:20;3.65;;;2.47;;
15968;SDS011;8085;53.472;9.794;2023-10-09T14:38:48;4.65;;;2.42;;
15968;SDS011;8085;53.472;9.794;2023-10-09T14:41:18;6.32;;;2.58;;
15968;SDS011;8085;53.472;9.794;2023-10-09T14:43:50;8.40;;;2.40;;
15968;SDS011;8085;53.472;9.794;2023-10-09T14:46:17;6.80;;;2.25;;
15968;SDS011;8085;53.472;9.794;2023-10-09T14:48:50;9.82;;;2.05;;
15968;SDS011;8085;53.472;9.794;2023-10-09T14:51:20;7.38;;;2.03;;
15968;SDS011;8085;53.472;9.794;2023-10-09T14:53:56;6.32;;;2.08;;
15968;SDS011;8085;53.472;9.794;2023-10-09T14:56:28;8.15;;;2.28;;
15968;SDS011;8085;53.472;9.794;2023-10-09T14:58:56;7.97;;;2.15;;
15968;SDS011;8085;53.472;9.794;2023-10-09T15:01:24;6.70;;;1.90;;
15968;SDS011;8085;53.472;9.794;2023-10-09T15:03:54;7.30;;;1.95;;
15968;SDS011;8085;53.472;9.794;2023-10-09T15:06:24;5.63;;;1.80;;
15968;SDS011;8085;53.472;9.794;2023-10-09T15:08:53;6.00;;;1.60;;
15968;SDS011;8085;53.472;9.794;2023-10-09T15:11:24;5.97;;;1.80;;
15968;SDS011;8085;53.472;9.794;2023-10-09T15:13:54;6.60;;;1.52;;
15968;SDS011;8085;53.472;9.794;2023-10-09T15:16:22;6.30;;;1.65;;
15968;SDS011;8085;53.472;9.794;2023-10-09T15:18:52;4.60;;;1.67;;
15968;SDS011;8085;53.472;9.794;2023-10-09T15:21:23;3.80;;;1.27;;
15968;SDS011;8085;53.472;9.794;2023-10-09T15:23:52;7.97;;;1.80;;
15968;SDS011;8085;53.472;9.794;2023-10-09T15:26:20;3.80;;;1.73;;
15968;SDS011;8085;53.472;9.794;2023-10-09T15:28:49;4.90;;;1.40;;
15968;SDS011;8085;53.472;9.794;2023-10-09T15:31:16;4.15;;;1.45;;
15968;SDS011;8085;53.472;9.794;2023-10-09T15:33:46;8.25;;;1.52;;
15968;SDS011;8085;53.472;9.794;2023-10-09T15:38:46;3.80;;;1.42;;
15968;SDS011;8085;53.472;9.794;2023-10-09T15:41:15;7.35;;;1.50;;
15968;SDS011;8085;53.472;9.794;2023-10-09T15:43:44;3.42;;;1.27;;
15968;SDS011;8085;53.472;9.794;2023-10-09T15:46:11;9.68;;;1.60;;
15968;SDS011;8085;53.472;9.794;2023-10-09T15:48:41;6.43;;;1.42;;
15968;SDS011;8085;53.472;9.794;2023-10-09T15:51:11;6.60;;;1.40;;
15968;SDS011;8085;53.472;9.794;2023-10-09T15:53:39;4.93;;;1.50;;
15968;SDS011;8085;53.472;9.794;2023-10-09T15:56:09;3.75;;;1.27;;
15968;SDS011;8085;53.472;9.794;2023-10-09T15:58:37;8.95;;;1.50;;